Main page
METAR-TAF:

METAR-TAF

Airports :

Alexandroupoli Airport

Alexandroupoli, Greece

latitude: 40-51N, longitude: 025-55E, elevation: 7 m

Current weather observation

The report was made 14 minutes ago, at 07:50 UTC
Wind 15 kt from the North/Northeast
Temperature 18°C
Humidity 64%
Pressure 1021 hPa
Visibility 10 km or more
Few clouds at a height of 2000 ft
Broken clouds at a height of 3000 ft

METAR: LGAL 150750Z 02015KT 9999 FEW020 BKN030 18/11 Q1021

Time: 11:04 (08:04 UTC)

Forecast

The report was made 3 hours and 4 minutes ago, at 05:00 UTC
Forecast valid from 15 at 06 UTC to 15 at 15 UTC
Wind 15 kt from the North
Visibility 10 km or more
Scattered clouds at a height of 2500 ft

TAF: LGAL 150500Z 1506/1515 01015KT 9999 SCT025

Weather observations and forecasts of more than 4000 airports (METAR and TAF reports).

The available stations are represented by yellow and red dots on the map.

Hover mouse over dot to see the name of the station.

Then click to see weather observations and forecasts.

To change the map : click on the green buttons with a black cross to zoom in, on the green button with a dash to zoom out, or on the green arrows for adjacent maps.


METAR-TAF: